Time;durP1;ratioP1;P1;durP2;ratioP2;P2;SDS_P1;SDS_P2;PMS_P1;PMS_P2;Temp;Humidity;BMP_temperature;BMP_pressure;BME280_temperature;BME280_humidity;BME280_pressure;Samples;Min_cycle;Max_cycle;Signal;HPM_P1;HPM_P2
2023/03/28 00:04:36;;;;;;;71.67;24.87;;;;;;;;;;9796817;30;20536;-89
2023/03/28 00:09:37;;;;;;;47.80;19.70;;;;;;;;;;9790137;30;20036;-88
2023/03/28 00:14:38;;;;;;;40.30;15.27;;;;;;;;;;9789235;30;20051;-88
2023/03/28 00:19:39;;;;;;;37.63;15.27;;;;;;;;;;9798029;30;20544;-88
2023/03/28 00:24:40;;;;;;;41.03;16.37;;;;;;;;;;9789220;30;20060;-88
2023/03/28 00:29:42;;;;;;;36.73;15.23;;;;;;;;;;9789994;30;20398;-88
2023/03/28 00:34:42;;;;;;;57.07;22.43;;;;;;;;;;9786492;30;20056;-88
2023/03/28 00:39:48;;;;;;;70.03;25.30;;;;;;;;;;9787144;30;20037;-88
2023/03/28 00:44:50;;;;;;;;;;;;;;;;;;9787449;30;20126;-88
2023/03/28 00:49:55;;;;;;;52.63;20.27;;;;;;;;;;9775049;30;19969;-88
2023/03/28 00:54:58;;;;;;;53.03;20.43;;;;;;;;;;9802012;30;20127;-88
2023/03/28 00:59:59;;;;;;;44.50;17.60;;;;;;;;;;9791978;30;20050;-89
2023/03/28 01:05:02;;;;;;;48.67;19.17;;;;;;;;;;9786225;30;20087;-88
2023/03/28 01:10:06;;;;;;;62.33;21.90;;;;;;;;;;9785611;30;20587;-87
2023/03/28 01:15:07;;;;;;;56.77;24.23;;;;;;;;;;9787224;30;20087;-87
2023/03/28 01:20:21;;;;;;;44.67;18.80;;;;;;;;;;9786619;30;20757;-87
2023/03/28 01:25:42;;;;;;;35.23;14.27;;;;;;;;;;9785395;30;20044;-87
2023/03/28 01:31:01;;;;;;;36.10;13.40;;;;;;;;;;9792149;30;20052;-89
2023/03/28 01:36:07;;;;;;;27.03;11.27;;;;;;;;;;9786611;30;20163;-88
2023/03/28 01:41:08;;;;;;;;;;;;;;;;;;9786781;30;20482;-87
2023/03/28 01:46:17;;;;;;;22.83;9.23;;;;;;;;;;9791083;30;19914;-89
2023/03/28 01:51:24;;;;;;;18.93;9.00;;;;;;;;;;9789003;30;20035;-87
2023/03/28 01:56:31;;;;;;;18.33;9.03;;;;;;;;;;9784300;30;20151;-88
2023/03/28 02:01:44;;;;;;;21.73;9.60;;;;;;;;;;9792525;30;20083;-87
2023/03/28 02:06:46;;;;;;;23.13;9.73;;;;;;;;;;9770693;30;20094;-88
2023/03/28 02:11:49;;;;;;;20.53;10.10;;;;;;;;;;9784111;30;20044;-87
2023/03/28 02:16:54;;;;;;;25.07;11.93;;;;;;;;;;9786202;30;20032;-88
2023/03/28 02:22:01;;;;;;;25.77;12.67;;;;;;;;;;9787615;30;20056;-87
2023/03/28 02:27:02;;;;;;;23.33;12.40;;;;;;;;;;9784085;30;20048;-88
2023/03/28 02:32:04;;;;;;;25.20;13.23;;;;;;;;;;9787250;30;20893;-89
2023/03/28 02:37:12;;;;;;;23.13;11.27;;;;;;;;;;9789443;30;20501;-88
2023/03/28 02:42:25;;;;;;;34.83;11.83;;;;;;;;;;9784327;30;20102;-87
2023/03/28 02:47:43;;;;;;;20.63;10.87;;;;;;;;;;9796114;30;20102;-87
2023/03/28 02:53:02;;;;;;;25.27;13.63;;;;;;;;;;9791480;30;20553;-86
2023/03/28 02:58:09;;;;;;;24.27;11.00;;;;;;;;;;9789459;30;20135;-88
2023/03/28 03:03:12;;;;;;;17.47;7.53;;;;;;;;;;9789053;30;20102;-86
2023/03/28 03:08:16;;;;;;;26.50;11.53;;;;;;;;;;9790816;30;20052;-89
2023/03/28 03:13:17;;;;;;;20.00;9.00;;;;;;;;;;9791626;30;20541;-88
2023/03/28 03:18:19;;;;;;;17.00;8.27;;;;;;;;;;9789475;30;20059;-89
2023/03/28 03:23:22;;;;;;;24.47;10.10;;;;;;;;;;9777607;30;20505;-89
2023/03/28 03:28:26;;;;;;;13.63;7.40;;;;;;;;;;9790224;30;20044;-90
2023/03/28 03:33:27;;;;;;;16.80;6.73;;;;;;;;;;9797210;30;20059;-87
2023/03/28 03:38:28;;;;;;;18.23;6.37;;;;;;;;;;9788714;30;20693;-88
2023/03/28 03:43:28;;;;;;;14.03;6.40;;;;;;;;;;9789409;30;20794;-86
2023/03/28 03:48:32;;;;;;;18.27;8.13;;;;;;;;;;9790293;30;20509;-86
2023/03/28 03:53:38;;;;;;;19.57;9.33;;;;;;;;;;9785470;30;20466;-85
2023/03/28 03:58:39;;;;;;;18.03;6.60;;;;;;;;;;9780287;30;20036;-88
2023/03/28 04:03:41;;;;;;;21.73;9.13;;;;;;;;;;9795591;30;20040;-88
2023/03/28 04:08:45;;;;;;;18.27;7.67;;;;;;;;;;9799183;30;20517;-89
2023/03/28 04:13:48;;;;;;;14.53;7.57;;;;;;;;;;9785394;30;20136;-86
2023/03/28 04:18:49;;;;;;;15.80;7.03;;;;;;;;;;9792306;30;20478;-87
2023/03/28 04:24:00;;;;;;;14.17;6.10;;;;;;;;;;9795962;30;20060;-84
2023/03/28 04:29:05;;;;;;;15.50;6.57;;;;;;;;;;9783862;30;20153;-85
2023/03/28 04:34:07;;;;;;;19.00;8.77;;;;;;;;;;9785054;30;20088;-84
2023/03/28 04:39:08;;;;;;;14.53;6.97;;;;;;;;;;9777691;30;20041;-85
2023/03/28 04:44:09;;;;;;;16.27;7.83;;;;;;;;;;9801523;30;20033;-84
2023/03/28 04:49:10;;;;;;;31.33;13.03;;;;;;;;;;9788704;30;20075;-84
2023/03/28 04:54:11;;;;;;;20.43;9.93;;;;;;;;;;9786248;30;20036;-85
2023/03/28 04:59:12;;;;;;;24.23;10.03;;;;;;;;;;9785859;30;20039;-84
2023/03/28 05:04:17;;;;;;;20.57;8.83;;;;;;;;;;9798814;30;20037;-84
2023/03/28 05:09:21;;;;;;;26.37;13.13;;;;;;;;;;9787064;30;20033;-84
2023/03/28 05:14:22;;;;;;;24.60;12.63;;;;;;;;;;9787150;30;20439;-84
2023/03/28 05:19:24;;;;;;;23.63;11.33;;;;;;;;;;9786624;30;20067;-83
2023/03/28 05:24:26;;;;;;;31.57;16.20;;;;;;;;;;9785478;30;20213;-84
2023/03/28 05:29:27;;;;;;;19.30;9.73;;;;;;;;;;9785137;30;20044;-83
2023/03/28 05:34:28;;;;;;;19.20;10.50;;;;;;;;;;9786840;30;20060;-84
2023/03/28 05:39:30;;;;;;;16.40;8.33;;;;;;;;;;9784992;30;20031;-83
2023/03/28 05:44:31;;;;;;;26.83;13.07;;;;;;;;;;9786415;30;20478;-84
2023/03/28 05:49:31;;;;;;;17.23;9.77;;;;;;;;;;9786410;30;20037;-83
2023/03/28 05:54:37;;;;;;;22.87;9.47;;;;;;;;;;9785895;30;20051;-84
2023/03/28 05:59:39;;;;;;;19.92;9.23;;;;;;;;;;9786856;30;20044;-84
2023/03/28 06:04:41;;;;;;;18.50;8.93;;;;;;;;;;9784455;30;20508;-84
2023/03/28 06:09:42;;;;;;;22.83;11.30;;;;;;;;;;9785877;30;20025;-83
2023/03/28 06:14:43;;;;;;;17.53;8.73;;;;;;;;;;9784411;30;20568;-84
2023/03/28 06:19:44;;;;;;;21.23;10.30;;;;;;;;;;9786407;30;20514;-84
2023/03/28 06:24:45;;;;;;;16.73;7.10;;;;;;;;;;9786753;30;20036;-84
2023/03/28 06:29:46;;;;;;;14.40;6.70;;;;;;;;;;9792621;30;20039;-84
2023/03/28 06:34:46;;;;;;;14.80;6.60;;;;;;;;;;9792736;30;20043;-85
2023/03/28 06:39:49;;;;;;;10.40;4.90;;;;;;;;;;9792449;30;20036;-85
2023/03/28 06:44:50;;;;;;;7.03;4.30;;;;;;;;;;9790785;30;20040;-83
2023/03/28 06:49:52;;;;;;;9.07;4.93;;;;;;;;;;9790944;30;20032;-85
2023/03/28 06:54:53;;;;;;;10.63;4.13;;;;;;;;;;9790065;30;20067;-84
2023/03/28 06:59:54;;;;;;;5.43;3.03;;;;;;;;;;9790016;30;20036;-84
2023/03/28 07:04:55;;;;;;;8.20;3.53;;;;;;;;;;9790308;30;20029;-83
2023/03/28 07:09:56;;;;;;;5.67;3.23;;;;;;;;;;9791051;30;20091;-84
2023/03/28 07:14:57;;;;;;;6.63;3.10;;;;;;;;;;9791016;30;20048;-85
2023/03/28 07:19:58;;;;;;;5.47;3.53;;;;;;;;;;9789312;30;20056;-83
2023/03/28 07:24:59;;;;;;;6.83;3.57;;;;;;;;;;9791284;30;20028;-84
2023/03/28 07:30:02;;;;;;;7.23;3.27;;;;;;;;;;9791121;30;20032;-83
2023/03/28 07:35:04;;;;;;;8.00;3.77;;;;;;;;;;9789127;30;20114;-85
2023/03/28 07:40:05;;;;;;;7.77;3.70;;;;;;;;;;9791128;30;20029;-83
2023/03/28 07:45:09;;;;;;;6.80;3.30;;;;;;;;;;9791001;30;20466;-84
2023/03/28 07:50:11;;;;;;;4.33;2.97;;;;;;;;;;9790916;30;20432;-84
2023/03/28 07:55:15;;;;;;;5.57;2.90;;;;;;;;;;9789998;30;20758;-86
2023/03/28 08:00:16;;;;;;;3.97;2.60;;;;;;;;;;9789949;30;20037;-84
2023/03/28 08:05:17;;;;;;;5.77;2.80;;;;;;;;;;9778072;30;20044;-85
2023/03/28 08:10:18;;;;;;;4.47;2.57;;;;;;;;;;9787643;30;20827;-83
2023/03/28 08:15:20;;;;;;;6.27;2.40;;;;;;;;;;9788661;30;20044;-84
2023/03/28 08:20:21;;;;;;;4.47;2.60;;;;;;;;;;9788328;30;20048;-83
2023/03/28 08:25:24;;;;;;;4.77;2.90;;;;;;;;;;9788809;30;20033;-83
2023/03/28 08:30:25;;;;;;;8.40;2.63;;;;;;;;;;9788533;30;20114;-83
2023/03/28 08:35:30;;;;;;;6.07;3.33;;;;;;;;;;9788377;30;20044;-84
2023/03/28 08:40:31;;;;;;;7.73;3.33;;;;;;;;;;9788489;30;20044;-84
2023/03/28 08:45:42;;;;;;;3.50;2.07;;;;;;;;;;9786076;30;20119;-84
2023/03/28 08:50:46;;;;;;;3.37;1.73;;;;;;;;;;9787458;30;20039;-84
2023/03/28 08:55:48;;;;;;;2.10;1.83;;;;;;;;;;9787465;30;20394;-84
2023/03/28 09:00:50;;;;;;;3.60;2.10;;;;;;;;;;9785880;30;20482;-84
2023/03/28 09:05:59;;;;;;;2.07;1.63;;;;;;;;;;9787039;30;20033;-84
2023/03/28 09:11:00;;;;;;;3.17;1.77;;;;;;;;;;9787433;30;20553;-84
2023/03/28 09:16:05;;;;;;;3.57;2.37;;;;;;;;;;9786813;30;20048;-83
2023/03/28 09:21:27;;;;;;;4.73;2.00;;;;;;;;;;9787313;30;20056;-83
2023/03/28 09:26:41;;;;;;;2.77;1.90;;;;;;;;;;9786744;30;20271;-83
2023/03/28 09:31:48;;;;;;;3.50;2.00;;;;;;;;;;9784768;30;20056;-87
2023/03/28 09:36:50;;;;;;;3.13;1.90;;;;;;;;;;9786915;30;20047;-86
2023/03/28 09:41:57;;;;;;;3.47;2.37;;;;;;;;;;9786785;30;20468;-84
2023/03/28 09:47:00;;;;;;;4.97;2.83;;;;;;;;;;9786454;30;20032;-86
2023/03/28 09:52:02;;;;;;;2.63;2.00;;;;;;;;;;9784863;30;20028;-83
2023/03/28 09:57:05;;;;;;;3.77;1.90;;;;;;;;;;9786039;30;20032;-86
2023/03/28 10:02:25;;;;;;;4.70;1.83;;;;;;;;;;9785294;30;20052;-86
2023/03/28 10:07:31;;;;;;;3.97;1.60;;;;;;;;;;9784417;30;20505;-88
2023/03/28 10:12:34;;;;;;;5.88;2.45;;;;;;;;;;9790437;30;20044;-87
2023/03/28 10:17:36;;;;;;;3.37;1.90;;;;;;;;;;9782599;30;20041;-88
2023/03/28 10:22:38;;;;;;;3.27;2.10;;;;;;;;;;9784875;30;20060;-85
2023/03/28 10:27:40;;;;;;;4.47;2.53;;;;;;;;;;9783304;30;20037;-87
2023/03/28 10:32:41;;;;;;;6.17;2.57;;;;;;;;;;9782936;30;20490;-87
2023/03/28 10:37:42;;;;;;;3.93;2.40;;;;;;;;;;9779795;30;20523;-85
2023/03/28 10:42:44;;;;;;;3.23;2.00;;;;;;;;;;9785444;30;20033;-83
2023/03/28 10:47:45;;;;;;;3.67;2.30;;;;;;;;;;9783606;30;20047;-86
2023/03/28 10:52:50;;;;;;;2.70;1.90;;;;;;;;;;9784516;30;20032;-87
2023/03/28 10:57:55;;;;;;;3.80;1.97;;;;;;;;;;9785477;30;20079;-86
2023/03/28 11:03:06;;;;;;;2.87;1.87;;;;;;;;;;9783472;30;20040;-86
2023/03/28 11:08:13;;;;;;;2.60;1.70;;;;;;;;;;9784303;30;20489;-84
2023/03/28 11:13:33;;;;;;;3.23;1.90;;;;;;;;;;9789368;30;20048;-87
2023/03/28 11:18:48;;;;;;;3.57;2.60;;;;;;;;;;9780392;30;20106;-85
2023/03/28 11:24:01;;;;;;;2.77;1.60;;;;;;;;;;9782430;30;20048;-85
2023/03/28 11:29:22;;;;;;;1.73;1.57;;;;;;;;;;9791240;30;20038;-88
2023/03/28 11:34:35;;;;;;;4.80;2.30;;;;;;;;;;9788892;30;20059;-87
2023/03/28 11:39:41;;;;;;;4.30;2.50;;;;;;;;;;9786437;30;20163;-87
2023/03/28 11:45:04;;;;;;;3.60;2.10;;;;;;;;;;9790770;30;20561;-91
2023/03/28 11:50:17;;;;;;;2.17;1.70;;;;;;;;;;9789175;30;20064;-86
2023/03/28 11:55:20;;;;;;;4.70;2.37;;;;;;;;;;9787948;30;20051;-83
2023/03/28 12:00:47;;;;;;;4.13;2.77;;;;;;;;;;9781503;30;20073;-85
2023/03/28 12:05:52;;;;;;;4.50;3.80;;;;;;;;;;9754111;30;20053;-84
2023/03/28 12:10:57;;;;;;;5.27;3.00;;;;;;;;;;9789188;30;20037;-86
2023/03/28 12:16:03;;;;;;;5.67;3.00;;;;;;;;;;9795964;30;20683;-86
2023/03/28 12:21:18;;;;;;;6.27;3.47;;;;;;;;;;9772420;30;20094;-87
2023/03/28 12:26:27;;;;;;;5.10;2.73;;;;;;;;;;9788605;30;20036;-91
2023/03/28 12:31:31;;;;;;;8.63;3.83;;;;;;;;;;9787242;30;20369;-89
2023/03/28 12:36:50;;;;;;;3.47;1.63;;;;;;;;;;9787703;30;20051;-87
2023/03/28 12:41:52;;;;;;;3.30;2.00;;;;;;;;;;9786450;30;20037;-89
2023/03/28 12:46:56;;;;;;;3.23;1.73;;;;;;;;;;9784410;30;20097;-87
2023/03/28 12:52:00;;;;;;;3.73;1.77;;;;;;;;;;9781027;30;20083;-88
2023/03/28 12:57:11;;;;;;;2.83;2.07;;;;;;;;;;9786087;30;20067;-89
2023/03/28 13:02:31;;;;;;;4.90;2.70;;;;;;;;;;9785827;30;20029;-90
2023/03/28 13:08:04;;;;;;;3.77;2.37;;;;;;;;;;9785761;30;20040;-89
2023/03/28 13:13:24;;;;;;;2.53;2.00;;;;;;;;;;9766072;30;20411;-87
2023/03/28 13:18:26;;;;;;;4.23;2.20;;;;;;;;;;9781201;30;20032;-89
2023/03/28 13:23:46;;;;;;;3.93;2.33;;;;;;;;;;9784927;30;20064;-88
2023/03/28 13:28:50;;;;;;;3.27;1.90;;;;;;;;;;9785549;30;20032;-88
2023/03/28 13:34:00;;;;;;;3.47;1.93;;;;;;;;;;9793399;30;20517;-87
2023/03/28 13:39:07;;;;;;;3.40;2.00;;;;;;;;;;9786959;30;20458;-87
2023/03/28 13:44:40;;;;;;;4.67;2.37;;;;;;;;;;9785748;30;20037;-89
2023/03/28 13:49:48;;;;;;;3.60;2.33;;;;;;;;;;9750792;30;20131;-88
2023/03/28 13:54:52;;;;;;;3.63;2.10;;;;;;;;;;9785773;30;20059;-86
2023/03/28 13:59:58;;;;;;;3.23;2.40;;;;;;;;;;9786524;30;20630;-88
2023/03/28 14:05:15;;;;;;;3.08;2.10;;;;;;;;;;9784964;30;20122;-89
2023/03/28 14:10:27;;;;;;;2.83;2.00;;;;;;;;;;9774929;30;20029;-89
2023/03/28 14:15:30;;;;;;;3.47;2.57;;;;;;;;;;9785647;30;20463;-88
2023/03/28 14:20:32;;;;;;;4.80;2.50;;;;;;;;;;9785901;30;20056;-86
2023/03/28 14:25:33;;;;;;;4.80;2.80;;;;;;;;;;9789151;30;20036;-87
2023/03/28 14:30:38;;;;;;;8.77;4.57;;;;;;;;;;9783898;30;20444;-90
2023/03/28 14:35:45;;;;;;;6.30;4.57;;;;;;;;;;9783633;30;20160;-89
2023/03/28 14:40:46;;;;;;;11.40;5.43;;;;;;;;;;9783828;30;20508;-87
2023/03/28 14:45:51;;;;;;;7.07;3.70;;;;;;;;;;9786743;30;20128;-86
2023/03/28 14:50:53;;;;;;;13.02;4.55;;;;;;;;;;9791679;30;20139;-88
2023/03/28 14:55:57;;;;;;;13.50;6.30;;;;;;;;;;9794455;30;20052;-89
2023/03/28 15:00:59;;;;;;;8.90;4.57;;;;;;;;;;9792759;30;20040;-90
2023/03/28 15:06:01;;;;;;;7.90;3.23;;;;;;;;;;9791639;30;20414;-89
2023/03/28 15:11:07;;;;;;;8.03;4.10;;;;;;;;;;9790682;30;20044;-88
2023/03/28 15:16:14;;;;;;;9.67;5.77;;;;;;;;;;9792225;30;20040;-87
2023/03/28 15:21:15;;;;;;;14.17;5.67;;;;;;;;;;9790115;30;20060;-88
2023/03/28 15:26:33;;;;;;;9.00;4.90;;;;;;;;;;9791636;30;20486;-87
2023/03/28 15:31:38;;;;;;;11.70;5.90;;;;;;;;;;9791390;30;20024;-88
2023/03/28 15:36:49;;;;;;;13.37;6.03;;;;;;;;;;9789723;30;20126;-87
2023/03/28 15:41:52;;;;;;;13.90;7.03;;;;;;;;;;9785244;30;20127;-87
2023/03/28 15:46:55;;;;;;;11.83;7.20;;;;;;;;;;9789114;30;20028;-90
2023/03/28 15:52:00;;;;;;;12.33;6.63;;;;;;;;;;9788860;30;20055;-90
2023/03/28 15:57:02;;;;;;;12.07;6.27;;;;;;;;;;9787726;30;20053;-87
2023/03/28 16:02:20;;;;;;;12.03;5.93;;;;;;;;;;9790073;30;20024;-86
2023/03/28 16:07:21;;;;;;;23.23;11.13;;;;;;;;;;9787878;30;20127;-85
2023/03/28 16:12:26;;;;;;;12.83;6.47;;;;;;;;;;9788072;30;20232;-86
2023/03/28 16:17:28;;;;;;;13.38;6.50;;;;;;;;;;9787926;30;20040;-88
2023/03/28 16:22:30;;;;;;;15.90;7.53;;;;;;;;;;9788892;30;20056;-86
2023/03/28 16:27:31;;;;;;;14.40;6.23;;;;;;;;;;9788792;30;20033;-87
2023/03/28 16:32:32;;;;;;;11.97;6.90;;;;;;;;;;9787925;30;20045;-87
2023/03/28 16:37:33;;;;;;;13.40;7.23;;;;;;;;;;9786867;30;20032;-88
2023/03/28 16:42:34;;;;;;;10.27;5.57;;;;;;;;;;9785971;30;20370;-87
2023/03/28 16:47:35;;;;;;;10.83;5.97;;;;;;;;;;9788024;30;20085;-84
2023/03/28 16:52:37;;;;;;;10.77;5.67;;;;;;;;;;9787587;30;20490;-85
2023/03/28 16:57:38;;;;;;;6.63;4.07;;;;;;;;;;9786246;30;20450;-85
2023/03/28 17:02:40;;;;;;;7.23;4.03;;;;;;;;;;9788089;30;20090;-85
2023/03/28 17:07:41;;;;;;;5.90;3.90;;;;;;;;;;9785460;30;20075;-85
2023/03/28 17:12:42;;;;;;;9.97;4.43;;;;;;;;;;9784929;30;20037;-86
2023/03/28 17:17:43;;;;;;;7.20;4.30;;;;;;;;;;9777701;30;20047;-87
2023/03/28 17:22:45;;;;;;;9.47;4.83;;;;;;;;;;9784971;30;20185;-88
2023/03/28 17:27:46;;;;;;;8.13;4.13;;;;;;;;;;9788067;30;20106;-87
2023/03/28 17:32:47;;;;;;;10.13;4.97;;;;;;;;;;9785775;30;20074;-87
2023/03/28 17:37:51;;;;;;;12.17;4.77;;;;;;;;;;9785476;30;20478;-87
2023/03/28 17:42:52;;;;;;;11.40;5.30;;;;;;;;;;9785437;30;20040;-88
2023/03/28 17:47:53;;;;;;;8.60;4.77;;;;;;;;;;9786724;30;20493;-87
2023/03/28 17:52:54;;;;;;;10.87;5.03;;;;;;;;;;9784859;30;20102;-88
2023/03/28 17:57:55;;;;;;;9.93;4.30;;;;;;;;;;9784798;30;20048;-85
2023/03/28 18:02:56;;;;;;;8.67;4.63;;;;;;;;;;9785799;30;20025;-87
2023/03/28 18:07:57;;;;;;;11.83;5.73;;;;;;;;;;9784518;30;20045;-87
2023/03/28 18:12:58;;;;;;;12.50;5.60;;;;;;;;;;9785146;30;20048;-88
2023/03/28 18:18:01;;;;;;;12.03;5.73;;;;;;;;;;9784639;30;20041;-88
2023/03/28 18:23:02;;;;;;;13.57;6.30;;;;;;;;;;9791811;30;20092;-91
2023/03/28 18:28:06;;;;;;;13.57;6.10;;;;;;;;;;9805352;30;20055;-88
2023/03/28 18:33:26;;;;;;;13.37;6.27;;;;;;;;;;9791864;30;20048;-91
2023/03/28 18:38:27;;;;;;;14.77;5.93;;;;;;;;;;9793467;30;20036;-89
2023/03/28 18:43:28;;;;;;;9.23;4.43;;;;;;;;;;9791541;30;20622;-89
2023/03/28 18:48:30;;;;;;;11.20;4.13;;;;;;;;;;9791577;30;20263;-88
2023/03/28 18:53:31;;;;;;;7.53;4.50;;;;;;;;;;9791285;30;20401;-88
2023/03/28 18:58:33;;;;;;;8.70;3.73;;;;;;;;;;9790890;30;20119;-88
2023/03/28 19:03:42;;;;;;;6.63;3.83;;;;;;;;;;9790008;30;20047;-89
2023/03/28 19:08:43;;;;;;;13.30;5.17;;;;;;;;;;9788510;30;20045;-90
2023/03/28 19:13:45;;;;;;;17.97;7.13;;;;;;;;;;9790439;30;20040;-89
2023/03/28 19:18:46;;;;;;;20.77;8.23;;;;;;;;;;9788436;30;20043;-88
2023/03/28 19:23:48;;;;;;;16.57;7.07;;;;;;;;;;9789968;30;20621;-89
2023/03/28 19:28:49;;;;;;;34.40;13.27;;;;;;;;;;9790298;30;20124;-92
2023/03/28 19:33:50;;;;;;;32.73;15.03;;;;;;;;;;9789815;30;20076;-88
2023/03/28 19:38:51;;;;;;;38.93;16.10;;;;;;;;;;9790426;30;20120;-87
2023/03/28 19:43:52;;;;;;;43.47;16.33;;;;;;;;;;9789314;30;20159;-89
2023/03/28 19:48:53;;;;;;;41.57;14.37;;;;;;;;;;9790942;30;20040;-88
2023/03/28 19:53:54;;;;;;;37.73;14.20;;;;;;;;;;9788000;30;20090;-88
2023/03/28 19:58:55;;;;;;;27.23;10.70;;;;;;;;;;9788615;30;20033;-88
2023/03/28 20:03:56;;;;;;;25.87;10.50;;;;;;;;;;9789432;30;20094;-87
2023/03/28 20:08:57;;;;;;;11.73;5.07;;;;;;;;;;9788019;30;20033;-88
2023/03/28 20:13:58;;;;;;;13.27;5.53;;;;;;;;;;9787972;30;20044;-89
2023/03/28 20:18:59;;;;;;;8.87;3.83;;;;;;;;;;9787230;30;20119;-88
2023/03/28 20:24:00;;;;;;;12.57;4.47;;;;;;;;;;9787597;30;20371;-88
2023/03/28 20:29:01;;;;;;;12.33;4.53;;;;;;;;;;9787867;30;20034;-88
2023/03/28 20:34:02;;;;;;;13.33;4.97;;;;;;;;;;9788760;30;20504;-89
2023/03/28 20:39:04;;;;;;;15.30;4.67;;;;;;;;;;9787026;30;20043;-89
2023/03/28 20:44:05;;;;;;;15.43;5.57;;;;;;;;;;9786196;30;20459;-90
2023/03/28 20:49:06;;;;;;;12.57;5.13;;;;;;;;;;9775264;30;20040;-88
2023/03/28 20:54:07;;;;;;;16.97;5.90;;;;;;;;;;9787997;30;20124;-90
2023/03/28 20:59:08;;;;;;;18.03;6.80;;;;;;;;;;9785706;30;20041;-88
2023/03/28 21:04:10;;;;;;;19.93;7.97;;;;;;;;;;9786021;30;20178;-88
2023/03/28 21:09:16;;;;;;;27.73;11.37;;;;;;;;;;9785905;30;20479;-88
2023/03/28 21:14:17;;;;;;;42.53;16.27;;;;;;;;;;9786739;30;20044;-88
2023/03/28 21:19:19;;;;;;;47.23;17.33;;;;;;;;;;9785378;30;20040;-88
2023/03/28 21:24:20;;;;;;;44.80;17.63;;;;;;;;;;9778099;30;20060;-88
2023/03/28 21:29:23;;;;;;;51.00;20.60;;;;;;;;;;9775987;30;20482;-88
2023/03/28 21:34:29;;;;;;;41.83;17.73;;;;;;;;;;9784614;30;20492;-89
2023/03/28 21:39:30;;;;;;;41.03;17.70;;;;;;;;;;9784861;30;20064;-87
2023/03/28 21:44:31;;;;;;;41.30;16.97;;;;;;;;;;9785523;30;20607;-87
2023/03/28 21:49:32;;;;;;;43.93;17.30;;;;;;;;;;9786473;30;20036;-87
2023/03/28 21:54:34;;;;;;;44.97;17.37;;;;;;;;;;9784601;30;20474;-88
2023/03/28 21:59:35;;;;;;;42.37;16.47;;;;;;;;;;9784473;30;20040;-87
2023/03/28 22:04:36;;;;;;;44.90;19.10;;;;;;;;;;9784640;30;20106;-87
2023/03/28 22:09:38;;;;;;;48.90;19.13;;;;;;;;;;9783794;30;20159;-87
2023/03/28 22:14:39;;;;;;;48.97;18.50;;;;;;;;;;9785066;30;20429;-87
2023/03/28 22:19:40;;;;;;;51.33;20.03;;;;;;;;;;9783944;30;20076;-87
2023/03/28 22:24:42;;;;;;;49.73;19.60;;;;;;;;;;9783903;30;20091;-87
2023/03/28 22:29:42;;;;;;;40.27;16.60;;;;;;;;;;9784089;30;20045;-87
2023/03/28 22:34:43;;;;;;;41.30;15.03;;;;;;;;;;9785588;30;20037;-87
2023/03/28 22:39:45;;;;;;;32.77;13.17;;;;;;;;;;9785708;30;20052;-86
2023/03/28 22:44:47;;;;;;;33.90;12.83;;;;;;;;;;9785355;30;20379;-87
2023/03/28 22:49:48;;;;;;;36.53;14.57;;;;;;;;;;9783805;30;20047;-86
2023/03/28 22:54:51;;;;;;;46.97;19.67;;;;;;;;;;9783620;30;20048;-86
2023/03/28 22:59:55;;;;;;;48.07;18.97;;;;;;;;;;9783309;30;20048;-87
2023/03/28 23:04:57;;;;;;;56.67;21.50;;;;;;;;;;9784739;30;20033;-87
2023/03/28 23:09:58;;;;;;;45.87;18.53;;;;;;;;;;9789775;30;20413;-86
2023/03/28 23:14:59;;;;;;;51.30;19.60;;;;;;;;;;9789864;30;20052;-87
2023/03/28 23:20:00;;;;;;;38.07;17.27;;;;;;;;;;9790779;30;20489;-86
2023/03/28 23:25:01;;;;;;;38.40;16.57;;;;;;;;;;9789597;30;20489;-87
2023/03/28 23:30:03;;;;;;;46.60;18.43;;;;;;;;;;9789813;30;20033;-87
2023/03/28 23:35:04;;;;;;;45.17;19.43;;;;;;;;;;9803851;30;20666;-87
2023/03/28 23:40:10;;;;;;;37.40;15.47;;;;;;;;;;9790348;30;20028;-87
2023/03/28 23:45:11;;;;;;;39.30;15.88;;;;;;;;;;9789380;30;20498;-86
2023/03/28 23:50:12;;;;;;;33.40;14.67;;;;;;;;;;9789912;30;20047;-86
2023/03/28 23:55:13;;;;;;;37.60;14.63;;;;;;;;;;9788753;30;20059;-86
